sensor_id;sensor_type;location;lat;lon;timestamp;P1;durP1;ratioP1;P2;durP2;ratioP2
71106;SDS011;58763;47.982;11.516;2023-04-28T00:00:10;4.13;;;2.08;;
71106;SDS011;58763;47.982;11.516;2023-04-28T00:02:36;3.50;;;1.95;;
71106;SDS011;58763;47.982;11.516;2023-04-28T00:05:01;4.13;;;1.95;;
71106;SDS011;58763;47.982;11.516;2023-04-28T00:07:27;3.78;;;1.80;;
71106;SDS011;58763;47.982;11.516;2023-04-28T00:09:53;5.57;;;2.08;;
71106;SDS011;58763;47.982;11.516;2023-04-28T00:12:18;4.60;;;1.90;;
71106;SDS011;58763;47.982;11.516;2023-04-28T00:14:43;5.57;;;2.38;;
71106;SDS011;58763;47.982;11.516;2023-04-28T00:17:09;3.00;;;1.60;;
71106;SDS011;58763;47.982;11.516;2023-04-28T00:19:34;3.55;;;1.70;;
71106;SDS011;58763;47.982;11.516;2023-04-28T00:22:00;4.03;;;1.95;;
71106;SDS011;58763;47.982;11.516;2023-04-28T00:24:25;5.50;;;1.73;;
71106;SDS011;58763;47.982;11.516;2023-04-28T00:26:51;3.08;;;1.67;;
71106;SDS011;58763;47.982;11.516;2023-04-28T00:29:16;5.57;;;2.00;;
71106;SDS011;58763;47.982;11.516;2023-04-28T00:31:43;4.45;;;1.90;;
71106;SDS011;58763;47.982;11.516;2023-04-28T00:34:08;3.03;;;1.48;;
71106;SDS011;58763;47.982;11.516;2023-04-28T00:36:38;5.30;;;2.00;;
71106;SDS011;58763;47.982;11.516;2023-04-28T00:39:03;3.42;;;1.70;;
71106;SDS011;58763;47.982;11.516;2023-04-28T00:41:29;3.42;;;1.90;;
71106;SDS011;58763;47.982;11.516;2023-04-28T00:43:54;3.40;;;1.88;;
71106;SDS011;58763;47.982;11.516;2023-04-28T00:46:21;3.30;;;1.80;;
71106;SDS011;58763;47.982;11.516;2023-04-28T00:48:49;3.60;;;1.73;;
71106;SDS011;58763;47.982;11.516;2023-04-28T00:51:15;4.00;;;2.08;;
71106;SDS011;58763;47.982;11.516;2023-04-28T00:53:41;3.42;;;1.80;;
71106;SDS011;58763;47.982;11.516;2023-04-28T00:56:07;3.63;;;1.70;;
71106;SDS011;58763;47.982;11.516;2023-04-28T00:58:33;3.40;;;1.70;;
71106;SDS011;58763;47.982;11.516;2023-04-28T01:01:05;4.68;;;1.98;;
71106;SDS011;58763;47.982;11.516;2023-04-28T01:03:32;3.95;;;2.20;;
71106;SDS011;58763;47.982;11.516;2023-04-28T01:05:59;4.22;;;1.80;;
71106;SDS011;58763;47.982;11.516;2023-04-28T01:08:29;3.85;;;1.80;;
71106;SDS011;58763;47.982;11.516;2023-04-28T01:10:55;4.20;;;1.95;;
71106;SDS011;58763;47.982;11.516;2023-04-28T01:13:21;3.22;;;1.70;;
71106;SDS011;58763;47.982;11.516;2023-04-28T01:15:46;3.67;;;1.80;;
71106;SDS011;58763;47.982;11.516;2023-04-28T01:18:11;3.80;;;2.10;;
71106;SDS011;58763;47.982;11.516;2023-04-28T01:20:37;4.35;;;2.10;;
71106;SDS011;58763;47.982;11.516;2023-04-28T01:23:03;3.65;;;1.77;;
71106;SDS011;58763;47.982;11.516;2023-04-28T01:25:28;4.15;;;1.90;;
71106;SDS011;58763;47.982;11.516;2023-04-28T01:27:54;3.28;;;1.70;;
71106;SDS011;58763;47.982;11.516;2023-04-28T01:30:20;3.75;;;1.83;;
71106;SDS011;58763;47.982;11.516;2023-04-28T01:32:45;4.38;;;2.15;;
71106;SDS011;58763;47.982;11.516;2023-04-28T01:35:11;3.10;;;1.83;;
71106;SDS011;58763;47.982;11.516;2023-04-28T01:37:36;4.80;;;2.28;;
71106;SDS011;58763;47.982;11.516;2023-04-28T01:40:01;3.53;;;1.88;;
71106;SDS011;58763;47.982;11.516;2023-04-28T01:42:28;4.10;;;2.30;;
71106;SDS011;58763;47.982;11.516;2023-04-28T01:44:53;4.07;;;2.00;;
71106;SDS011;58763;47.982;11.516;2023-04-28T01:47:18;4.28;;;2.30;;
71106;SDS011;58763;47.982;11.516;2023-04-28T01:49:44;4.82;;;2.20;;
71106;SDS011;58763;47.982;11.516;2023-04-28T01:52:12;4.25;;;2.00;;
71106;SDS011;58763;47.982;11.516;2023-04-28T01:54:37;4.15;;;2.20;;
71106;SDS011;58763;47.982;11.516;2023-04-28T01:57:02;4.30;;;1.92;;
71106;SDS011;58763;47.982;11.516;2023-04-28T01:59:28;4.75;;;2.20;;
71106;SDS011;58763;47.982;11.516;2023-04-28T02:01:53;3.45;;;1.95;;
71106;SDS011;58763;47.982;11.516;2023-04-28T02:04:18;3.50;;;1.95;;
71106;SDS011;58763;47.982;11.516;2023-04-28T02:06:44;3.75;;;1.80;;
71106;SDS011;58763;47.982;11.516;2023-04-28T02:09:09;4.07;;;1.88;;
71106;SDS011;58763;47.982;11.516;2023-04-28T02:11:35;4.07;;;2.05;;
71106;SDS011;58763;47.982;11.516;2023-04-28T02:14:00;3.97;;;1.80;;
71106;SDS011;58763;47.982;11.516;2023-04-28T02:16:26;2.97;;;1.60;;
71106;SDS011;58763;47.982;11.516;2023-04-28T02:18:51;3.30;;;1.60;;
71106;SDS011;58763;47.982;11.516;2023-04-28T02:21:17;3.67;;;1.55;;
71106;SDS011;58763;47.982;11.516;2023-04-28T02:23:42;4.90;;;1.70;;
71106;SDS011;58763;47.982;11.516;2023-04-28T02:26:07;3.00;;;1.58;;
71106;SDS011;58763;47.982;11.516;2023-04-28T02:28:33;2.60;;;1.40;;
71106;SDS011;58763;47.982;11.516;2023-04-28T02:31:02;3.25;;;1.70;;
71106;SDS011;58763;47.982;11.516;2023-04-28T02:33:29;3.60;;;1.73;;
71106;SDS011;58763;47.982;11.516;2023-04-28T02:35:58;3.08;;;1.42;;
71106;SDS011;58763;47.982;11.516;2023-04-28T02:38:24;4.47;;;1.97;;
71106;SDS011;58763;47.982;11.516;2023-04-28T02:40:55;3.35;;;1.80;;
71106;SDS011;58763;47.982;11.516;2023-04-28T02:43:22;3.72;;;2.10;;
71106;SDS011;58763;47.982;11.516;2023-04-28T02:45:48;3.80;;;1.80;;
71106;SDS011;58763;47.982;11.516;2023-04-28T02:48:13;3.38;;;1.70;;
71106;SDS011;58763;47.982;11.516;2023-04-28T02:50:38;3.65;;;1.60;;
71106;SDS011;58763;47.982;11.516;2023-04-28T02:53:04;3.17;;;1.58;;
71106;SDS011;58763;47.982;11.516;2023-04-28T02:55:30;3.70;;;1.70;;
71106;SDS011;58763;47.982;11.516;2023-04-28T02:57:56;3.50;;;1.80;;
71106;SDS011;58763;47.982;11.516;2023-04-28T03:00:21;2.53;;;1.42;;
71106;SDS011;58763;47.982;11.516;2023-04-28T03:02:47;3.08;;;1.60;;
71106;SDS011;58763;47.982;11.516;2023-04-28T03:05:12;3.35;;;1.73;;
71106;SDS011;58763;47.982;11.516;2023-04-28T03:07:37;3.28;;;1.60;;
71106;SDS011;58763;47.982;11.516;2023-04-28T03:10:03;3.13;;;1.70;;
71106;SDS011;58763;47.982;11.516;2023-04-28T03:12:28;4.45;;;1.98;;
71106;SDS011;58763;47.982;11.516;2023-04-28T03:14:54;3.55;;;1.80;;
71106;SDS011;58763;47.982;11.516;2023-04-28T03:17:20;3.03;;;1.67;;
71106;SDS011;58763;47.982;11.516;2023-04-28T03:19:45;3.22;;;1.70;;
71106;SDS011;58763;47.982;11.516;2023-04-28T03:22:10;3.17;;;1.70;;
71106;SDS011;58763;47.982;11.516;2023-04-28T03:24:36;3.30;;;1.70;;
71106;SDS011;58763;47.982;11.516;2023-04-28T03:27:01;3.58;;;1.50;;
71106;SDS011;58763;47.982;11.516;2023-04-28T03:29:28;3.95;;;1.67;;
71106;SDS011;58763;47.982;11.516;2023-04-28T03:31:53;3.53;;;1.70;;
71106;SDS011;58763;47.982;11.516;2023-04-28T03:34:19;3.83;;;1.80;;
71106;SDS011;58763;47.982;11.516;2023-04-28T03:36:44;2.97;;;1.50;;
71106;SDS011;58763;47.982;11.516;2023-04-28T03:39:10;3.75;;;1.75;;
71106;SDS011;58763;47.982;11.516;2023-04-28T03:41:35;3.00;;;1.58;;
71106;SDS011;58763;47.982;11.516;2023-04-28T03:44:01;5.70;;;2.38;;
71106;SDS011;58763;47.982;11.516;2023-04-28T03:46:26;4.47;;;2.20;;
71106;SDS011;58763;47.982;11.516;2023-04-28T03:48:51;4.57;;;2.10;;
71106;SDS011;58763;47.982;11.516;2023-04-28T03:51:17;3.97;;;1.83;;
71106;SDS011;58763;47.982;11.516;2023-04-28T03:53:43;3.47;;;1.75;;
71106;SDS011;58763;47.982;11.516;2023-04-28T03:56:08;3.40;;;1.80;;
71106;SDS011;58763;47.982;11.516;2023-04-28T03:58:34;3.47;;;1.40;;
71106;SDS011;58763;47.982;11.516;2023-04-28T04:00:59;3.60;;;1.30;;
71106;SDS011;58763;47.982;11.516;2023-04-28T04:03:25;3.28;;;1.52;;
71106;SDS011;58763;47.982;11.516;2023-04-28T04:05:51;2.67;;;1.30;;
71106;SDS011;58763;47.982;11.516;2023-04-28T04:08:17;4.80;;;1.60;;
71106;SDS011;58763;47.982;11.516;2023-04-28T04:10:43;2.60;;;1.33;;
71106;SDS011;58763;47.982;11.516;2023-04-28T04:13:08;3.80;;;1.88;;
71106;SDS011;58763;47.982;11.516;2023-04-28T04:15:34;4.35;;;1.75;;
71106;SDS011;58763;47.982;11.516;2023-04-28T04:18:00;3.72;;;1.85;;
71106;SDS011;58763;47.982;11.516;2023-04-28T04:20:25;3.17;;;1.60;;
71106;SDS011;58763;47.982;11.516;2023-04-28T04:22:51;4.60;;;1.55;;
71106;SDS011;58763;47.982;11.516;2023-04-28T04:25:16;3.20;;;1.60;;
71106;SDS011;58763;47.982;11.516;2023-04-28T04:27:42;5.50;;;2.92;;
71106;SDS011;58763;47.982;11.516;2023-04-28T04:30:07;5.47;;;2.60;;
71106;SDS011;58763;47.982;11.516;2023-04-28T04:32:33;5.15;;;2.15;;
71106;SDS011;58763;47.982;11.516;2023-04-28T04:34:58;4.20;;;1.80;;
71106;SDS011;58763;47.982;11.516;2023-04-28T04:37:24;2.80;;;1.48;;
71106;SDS011;58763;47.982;11.516;2023-04-28T04:39:49;3.28;;;1.83;;
71106;SDS011;58763;47.982;11.516;2023-04-28T04:42:15;8.88;;;4.13;;
71106;SDS011;58763;47.982;11.516;2023-04-28T04:44:40;13.70;;;6.95;;
71106;SDS011;58763;47.982;11.516;2023-04-28T04:47:06;7.30;;;3.60;;
71106;SDS011;58763;47.982;11.516;2023-04-28T04:49:31;6.90;;;2.90;;
71106;SDS011;58763;47.982;11.516;2023-04-28T04:51:56;12.60;;;5.75;;
71106;SDS011;58763;47.982;11.516;2023-04-28T04:54:22;11.20;;;4.65;;
71106;SDS011;58763;47.982;11.516;2023-04-28T04:56:47;24.15;;;9.65;;
71106;SDS011;58763;47.982;11.516;2023-04-28T04:59:13;18.42;;;8.00;;
71106;SDS011;58763;47.982;11.516;2023-04-28T05:01:38;7.22;;;3.42;;
71106;SDS011;58763;47.982;11.516;2023-04-28T05:04:03;4.57;;;2.35;;
71106;SDS011;58763;47.982;11.516;2023-04-28T05:06:29;3.78;;;1.75;;
71106;SDS011;58763;47.982;11.516;2023-04-28T05:08:55;4.10;;;2.00;;
71106;SDS011;58763;47.982;11.516;2023-04-28T05:11:22;3.95;;;2.00;;
71106;SDS011;58763;47.982;11.516;2023-04-28T05:13:48;18.00;;;5.55;;
71106;SDS011;58763;47.982;11.516;2023-04-28T05:16:13;6.25;;;2.63;;
71106;SDS011;58763;47.982;11.516;2023-04-28T05:18:39;3.03;;;1.50;;
71106;SDS011;58763;47.982;11.516;2023-04-28T05:21:04;3.15;;;1.55;;
71106;SDS011;58763;47.982;11.516;2023-04-28T05:23:30;3.10;;;1.55;;
71106;SDS011;58763;47.982;11.516;2023-04-28T05:25:56;4.05;;;1.98;;
71106;SDS011;58763;47.982;11.516;2023-04-28T05:28:21;3.97;;;1.65;;
71106;SDS011;58763;47.982;11.516;2023-04-28T05:30:47;4.05;;;1.77;;
71106;SDS011;58763;47.982;11.516;2023-04-28T05:33:12;3.78;;;1.70;;
71106;SDS011;58763;47.982;11.516;2023-04-28T05:35:38;5.38;;;1.92;;
71106;SDS011;58763;47.982;11.516;2023-04-28T05:38:03;4.90;;;1.60;;
71106;SDS011;58763;47.982;11.516;2023-04-28T05:40:29;3.60;;;1.77;;
71106;SDS011;58763;47.982;11.516;2023-04-28T05:42:54;4.00;;;1.98;;
71106;SDS011;58763;47.982;11.516;2023-04-28T05:45:20;4.35;;;2.28;;
71106;SDS011;58763;47.982;11.516;2023-04-28T05:47:46;4.00;;;2.20;;
71106;SDS011;58763;47.982;11.516;2023-04-28T05:50:11;4.28;;;2.20;;
71106;SDS011;58763;47.982;11.516;2023-04-28T05:52:37;3.90;;;2.03;;
71106;SDS011;58763;47.982;11.516;2023-04-28T05:55:02;4.60;;;2.15;;
71106;SDS011;58763;47.982;11.516;2023-04-28T05:57:28;3.60;;;1.85;;
71106;SDS011;58763;47.982;11.516;2023-04-28T05:59:53;4.45;;;2.05;;
71106;SDS011;58763;47.982;11.516;2023-04-28T06:02:19;4.13;;;1.85;;
71106;SDS011;58763;47.982;11.516;2023-04-28T06:04:44;3.70;;;1.85;;
71106;SDS011;58763;47.982;11.516;2023-04-28T06:07:10;3.78;;;2.08;;
71106;SDS011;58763;47.982;11.516;2023-04-28T06:09:35;4.07;;;2.03;;
71106;SDS011;58763;47.982;11.516;2023-04-28T06:12:01;4.28;;;2.13;;
71106;SDS011;58763;47.982;11.516;2023-04-28T06:14:28;6.03;;;2.47;;
71106;SDS011;58763;47.982;11.516;2023-04-28T06:16:53;3.72;;;2.15;;
71106;SDS011;58763;47.982;11.516;2023-04-28T06:19:18;3.80;;;1.80;;
71106;SDS011;58763;47.982;11.516;2023-04-28T06:21:45;3.83;;;2.20;;
71106;SDS011;58763;47.982;11.516;2023-04-28T06:24:11;4.82;;;2.15;;
71106;SDS011;58763;47.982;11.516;2023-04-28T06:26:36;4.57;;;2.38;;
71106;SDS011;58763;47.982;11.516;2023-04-28T06:29:02;4.78;;;2.50;;
71106;SDS011;58763;47.982;11.516;2023-04-28T06:31:28;4.40;;;2.47;;
71106;SDS011;58763;47.982;11.516;2023-04-28T06:33:53;5.18;;;2.20;;
71106;SDS011;58763;47.982;11.516;2023-04-28T06:36:19;4.70;;;2.33;;
71106;SDS011;58763;47.982;11.516;2023-04-28T06:38:44;4.50;;;2.13;;
71106;SDS011;58763;47.982;11.516;2023-04-28T06:41:10;5.60;;;2.08;;
71106;SDS011;58763;47.982;11.516;2023-04-28T06:43:36;3.90;;;2.47;;
71106;SDS011;58763;47.982;11.516;2023-04-28T06:46:02;5.18;;;2.30;;
71106;SDS011;58763;47.982;11.516;2023-04-28T06:48:27;4.22;;;2.00;;
71106;SDS011;58763;47.982;11.516;2023-04-28T06:50:53;4.45;;;2.30;;
71106;SDS011;58763;47.982;11.516;2023-04-28T06:53:19;4.78;;;2.25;;
71106;SDS011;58763;47.982;11.516;2023-04-28T06:55:44;4.15;;;2.08;;
71106;SDS011;58763;47.982;11.516;2023-04-28T06:58:10;5.05;;;2.55;;
71106;SDS011;58763;47.982;11.516;2023-04-28T07:00:35;4.38;;;2.30;;
71106;SDS011;58763;47.982;11.516;2023-04-28T07:03:01;5.32;;;2.40;;
71106;SDS011;58763;47.982;11.516;2023-04-28T07:05:26;5.88;;;2.67;;
71106;SDS011;58763;47.982;11.516;2023-04-28T07:07:52;5.60;;;2.50;;
71106;SDS011;58763;47.982;11.516;2023-04-28T07:10:18;4.10;;;2.13;;
71106;SDS011;58763;47.982;11.516;2023-04-28T07:12:44;4.35;;;2.30;;
71106;SDS011;58763;47.982;11.516;2023-04-28T07:15:09;4.20;;;2.20;;
71106;SDS011;58763;47.982;11.516;2023-04-28T07:17:35;4.82;;;2.53;;
71106;SDS011;58763;47.982;11.516;2023-04-28T07:20:01;3.72;;;2.17;;
71106;SDS011;58763;47.982;11.516;2023-04-28T07:22:28;5.18;;;2.67;;
71106;SDS011;58763;47.982;11.516;2023-04-28T07:24:53;4.97;;;2.58;;
71106;SDS011;58763;47.982;11.516;2023-04-28T07:27:19;5.25;;;3.00;;
71106;SDS011;58763;47.982;11.516;2023-04-28T07:29:44;4.57;;;2.45;;
71106;SDS011;58763;47.982;11.516;2023-04-28T07:32:09;4.50;;;2.40;;
71106;SDS011;58763;47.982;11.516;2023-04-28T07:34:35;4.55;;;2.55;;
71106;SDS011;58763;47.982;11.516;2023-04-28T07:37:01;4.20;;;2.42;;
71106;SDS011;58763;47.982;11.516;2023-04-28T07:39:28;4.20;;;2.45;;
71106;SDS011;58763;47.982;11.516;2023-04-28T07:41:55;4.30;;;2.50;;
71106;SDS011;58763;47.982;11.516;2023-04-28T07:44:22;4.85;;;2.47;;
71106;SDS011;58763;47.982;11.516;2023-04-28T07:46:47;4.30;;;2.42;;
71106;SDS011;58763;47.982;11.516;2023-04-28T07:49:13;4.70;;;2.25;;
71106;SDS011;58763;47.982;11.516;2023-04-28T07:51:39;3.60;;;2.10;;
71106;SDS011;58763;47.982;11.516;2023-04-28T07:54:04;4.32;;;2.45;;
71106;SDS011;58763;47.982;11.516;2023-04-28T07:56:29;4.60;;;2.17;;
71106;SDS011;58763;47.982;11.516;2023-04-28T07:58:55;3.33;;;1.83;;
71106;SDS011;58763;47.982;11.516;2023-04-28T08:01:21;3.88;;;2.03;;
71106;SDS011;58763;47.982;11.516;2023-04-28T08:03:46;4.88;;;2.00;;
71106;SDS011;58763;47.982;11.516;2023-04-28T08:06:12;4.25;;;2.22;;
71106;SDS011;58763;47.982;11.516;2023-04-28T08:08:37;3.60;;;1.88;;
71106;SDS011;58763;47.982;11.516;2023-04-28T08:11:03;3.75;;;1.90;;
71106;SDS011;58763;47.982;11.516;2023-04-28T08:13:29;3.17;;;1.80;;
71106;SDS011;58763;47.982;11.516;2023-04-28T08:15:55;4.03;;;1.98;;
71106;SDS011;58763;47.982;11.516;2023-04-28T08:18:21;4.40;;;1.95;;
71106;SDS011;58763;47.982;11.516;2023-04-28T08:20:47;4.07;;;2.10;;
71106;SDS011;58763;47.982;11.516;2023-04-28T08:23:12;4.25;;;1.80;;
71106;SDS011;58763;47.982;11.516;2023-04-28T08:25:38;4.10;;;1.95;;
71106;SDS011;58763;47.982;11.516;2023-04-28T08:28:03;3.50;;;1.92;;
71106;SDS011;58763;47.982;11.516;2023-04-28T08:30:30;5.95;;;2.20;;
71106;SDS011;58763;47.982;11.516;2023-04-28T08:32:56;3.85;;;2.22;;
71106;SDS011;58763;47.982;11.516;2023-04-28T08:35:21;4.00;;;1.90;;
71106;SDS011;58763;47.982;11.516;2023-04-28T08:37:47;3.53;;;1.73;;
71106;SDS011;58763;47.982;11.516;2023-04-28T08:40:13;5.88;;;1.90;;
71106;SDS011;58763;47.982;11.516;2023-04-28T08:42:39;3.60;;;2.00;;
71106;SDS011;58763;47.982;11.516;2023-04-28T08:45:05;4.28;;;2.00;;
71106;SDS011;58763;47.982;11.516;2023-04-28T08:47:36;4.43;;;2.05;;
71106;SDS011;58763;47.982;11.516;2023-04-28T08:50:04;3.95;;;1.80;;
71106;SDS011;58763;47.982;11.516;2023-04-28T08:52:31;5.32;;;2.10;;
71106;SDS011;58763;47.982;11.516;2023-04-28T08:54:58;4.45;;;1.95;;
71106;SDS011;58763;47.982;11.516;2023-04-28T08:57:25;3.50;;;1.80;;
71106;SDS011;58763;47.982;11.516;2023-04-28T08:59:52;5.03;;;2.30;;
71106;SDS011;58763;47.982;11.516;2023-04-28T09:02:17;3.17;;;1.73;;
71106;SDS011;58763;47.982;11.516;2023-04-28T09:04:45;3.22;;;1.60;;
71106;SDS011;58763;47.982;11.516;2023-04-28T09:07:11;2.97;;;1.52;;
71106;SDS011;58763;47.982;11.516;2023-04-28T09:09:37;3.20;;;1.63;;
71106;SDS011;58763;47.982;11.516;2023-04-28T09:12:04;3.15;;;1.40;;
71106;SDS011;58763;47.982;11.516;2023-04-28T09:14:31;3.85;;;1.77;;
71106;SDS011;58763;47.982;11.516;2023-04-28T09:16:58;2.95;;;1.30;;
71106;SDS011;58763;47.982;11.516;2023-04-28T09:19:24;3.10;;;1.50;;
71106;SDS011;58763;47.982;11.516;2023-04-28T09:21:58;3.92;;;1.30;;
71106;SDS011;58763;47.982;11.516;2023-04-28T09:24:45;2.97;;;1.30;;
71106;SDS011;58763;47.982;11.516;2023-04-28T09:27:11;2.47;;;1.20;;
71106;SDS011;58763;47.982;11.516;2023-04-28T09:29:37;2.83;;;1.42;;
71106;SDS011;58763;47.982;11.516;2023-04-28T09:32:11;4.30;;;1.20;;
71106;SDS011;58763;47.982;11.516;2023-04-28T09:34:47;3.53;;;1.10;;
71106;SDS011;58763;47.982;11.516;2023-04-28T09:37:15;2.05;;;0.90;;
71106;SDS011;58763;47.982;11.516;2023-04-28T09:39:44;1.63;;;0.80;;
71106;SDS011;58763;47.982;11.516;2023-04-28T09:45:04;1.58;;;0.70;;
71106;SDS011;58763;47.982;11.516;2023-04-28T09:47:32;2.10;;;0.90;;
71106;SDS011;58763;47.982;11.516;2023-04-28T09:50:00;6.00;;;1.10;;
71106;SDS011;58763;47.982;11.516;2023-04-28T09:52:34;2.58;;;0.95;;
71106;SDS011;58763;47.982;11.516;2023-04-28T09:55:01;2.60;;;0.70;;
71106;SDS011;58763;47.982;11.516;2023-04-28T09:57:29;2.10;;;0.70;;
71106;SDS011;58763;47.982;11.516;2023-04-28T09:59:58;1.53;;;0.80;;
71106;SDS011;58763;47.982;11.516;2023-04-28T10:02:25;1.70;;;0.73;;
71106;SDS011;58763;47.982;11.516;2023-04-28T10:04:51;2.72;;;0.73;;
71106;SDS011;58763;47.982;11.516;2023-04-28T10:07:17;1.77;;;0.85;;
71106;SDS011;58763;47.982;11.516;2023-04-28T10:09:47;1.95;;;0.80;;
71106;SDS011;58763;47.982;11.516;2023-04-28T10:12:18;1.67;;;0.60;;
71106;SDS011;58763;47.982;11.516;2023-04-28T10:14:45;1.37;;;0.70;;
71106;SDS011;58763;47.982;11.516;2023-04-28T10:17:15;3.17;;;0.80;;
71106;SDS011;58763;47.982;11.516;2023-04-28T10:19:42;1.30;;;0.70;;
71106;SDS011;58763;47.982;11.516;2023-04-28T10:22:15;1.48;;;0.70;;
71106;SDS011;58763;47.982;11.516;2023-04-28T10:27:45;1.58;;;0.70;;
71106;SDS011;58763;47.982;11.516;2023-04-28T10:30:15;1.30;;;0.60;;
71106;SDS011;58763;47.982;11.516;2023-04-28T10:32:42;1.52;;;0.77;;
71106;SDS011;58763;47.982;11.516;2023-04-28T10:38:02;1.83;;;0.82;;
71106;SDS011;58763;47.982;11.516;2023-04-28T10:43:12;2.00;;;0.80;;
71106;SDS011;58763;47.982;11.516;2023-04-28T10:45:58;2.22;;;0.70;;
71106;SDS011;58763;47.982;11.516;2023-04-28T10:56:24;1.65;;;0.70;;
71106;SDS011;58763;47.982;11.516;2023-04-28T10:58:51;1.10;;;0.60;;
71106;SDS011;58763;47.982;11.516;2023-04-28T11:06:18;2.08;;;0.75;;
71106;SDS011;58763;47.982;11.516;2023-04-28T11:11:39;1.80;;;0.73;;
71106;SDS011;58763;47.982;11.516;2023-04-28T11:17:00;2.22;;;0.73;;
71106;SDS011;58763;47.982;11.516;2023-04-28T11:20:00;1.17;;;0.60;;
71106;SDS011;58763;47.982;11.516;2023-04-28T11:22:21;2.67;;;0.77;;
71106;SDS011;58763;47.982;11.516;2023-04-28T11:25:21;1.40;;;0.65;;
71106;SDS011;58763;47.982;11.516;2023-04-28T11:27:39;1.70;;;0.80;;
71106;SDS011;58763;47.982;11.516;2023-04-28T11:30:18;1.65;;;0.70;;
71106;SDS011;58763;47.982;11.516;2023-04-28T11:32:48;2.10;;;0.68;;
71106;SDS011;58763;47.982;11.516;2023-04-28T11:35:13;1.38;;;0.70;;
71106;SDS011;58763;47.982;11.516;2023-04-28T11:37:39;1.40;;;0.60;;
71106;SDS011;58763;47.982;11.516;2023-04-28T11:40:11;2.35;;;0.80;;
71106;SDS011;58763;47.982;11.516;2023-04-28T11:42:45;1.30;;;0.63;;
71106;SDS011;58763;47.982;11.516;2023-04-28T11:45:12;1.70;;;0.50;;
71106;SDS011;58763;47.982;11.516;2023-04-28T11:47:37;1.92;;;0.70;;
71106;SDS011;58763;47.982;11.516;2023-04-28T11:50:03;3.10;;;0.70;;
71106;SDS011;58763;47.982;11.516;2023-04-28T11:52:29;1.30;;;0.55;;
71106;SDS011;58763;47.982;11.516;2023-04-28T11:54:57;1.88;;;0.85;;
71106;SDS011;58763;47.982;11.516;2023-04-28T11:57:26;1.65;;;0.57;;
71106;SDS011;58763;47.982;11.516;2023-04-28T11:59:51;1.33;;;0.55;;
71106;SDS011;58763;47.982;11.516;2023-04-28T12:02:26;1.83;;;0.60;;
71106;SDS011;58763;47.982;11.516;2023-04-28T12:04:55;2.03;;;0.80;;
71106;SDS011;58763;47.982;11.516;2023-04-28T12:07:20;2.28;;;0.70;;
71106;SDS011;58763;47.982;11.516;2023-04-28T12:09:46;1.70;;;0.65;;
71106;SDS011;58763;47.982;11.516;2023-04-28T12:12:28;3.10;;;0.77;;
71106;SDS011;58763;47.982;11.516;2023-04-28T12:17:37;2.22;;;0.60;;
71106;SDS011;58763;47.982;11.516;2023-04-28T12:20:06;1.95;;;0.60;;
71106;SDS011;58763;47.982;11.516;2023-04-28T12:22:43;1.92;;;0.60;;
71106;SDS011;58763;47.982;11.516;2023-04-28T12:25:11;2.55;;;0.70;;
71106;SDS011;58763;47.982;11.516;2023-04-28T12:27:38;1.55;;;0.57;;
71106;SDS011;58763;47.982;11.516;2023-04-28T12:32:45;1.23;;;0.63;;
71106;SDS011;58763;47.982;11.516;2023-04-28T12:35:11;1.63;;;0.55;;
71106;SDS011;58763;47.982;11.516;2023-04-28T12:37:36;1.30;;;0.50;;
71106;SDS011;58763;47.982;11.516;2023-04-28T12:40:06;1.20;;;0.57;;
71106;SDS011;58763;47.982;11.516;2023-04-28T12:42:32;1.45;;;0.55;;
71106;SDS011;58763;47.982;11.516;2023-04-28T12:44:57;1.15;;;0.60;;
71106;SDS011;58763;47.982;11.516;2023-04-28T12:47:23;1.95;;;0.50;;
71106;SDS011;58763;47.982;11.516;2023-04-28T12:49:48;1.58;;;0.50;;
71106;SDS011;58763;47.982;11.516;2023-04-28T12:52:17;1.25;;;0.50;;
71106;SDS011;58763;47.982;11.516;2023-04-28T12:54:46;1.30;;;0.50;;
71106;SDS011;58763;47.982;11.516;2023-04-28T12:57:15;1.67;;;0.52;;
71106;SDS011;58763;47.982;11.516;2023-04-28T12:59:41;1.60;;;0.60;;
71106;SDS011;58763;47.982;11.516;2023-04-28T13:02:07;1.48;;;0.50;;
71106;SDS011;58763;47.982;11.516;2023-04-28T13:04:32;1.80;;;0.50;;
71106;SDS011;58763;47.982;11.516;2023-04-28T13:06:58;1.40;;;0.50;;
71106;SDS011;58763;47.982;11.516;2023-04-28T13:09:24;1.60;;;0.50;;
71106;SDS011;58763;47.982;11.516;2023-04-28T13:11:50;1.17;;;0.50;;
71106;SDS011;58763;47.982;11.516;2023-04-28T13:14:18;0.60;;;0.30;;
71106;SDS011;58763;47.982;11.516;2023-04-28T13:16:44;0.65;;;0.30;;
71106;SDS011;58763;47.982;11.516;2023-04-28T13:19:09;3.30;;;0.50;;
71106;SDS011;58763;47.982;11.516;2023-04-28T13:21:38;0.70;;;0.30;;
71106;SDS011;58763;47.982;11.516;2023-04-28T13:24:05;1.85;;;0.43;;
71106;SDS011;58763;47.982;11.516;2023-04-28T13:26:31;0.85;;;0.40;;
71106;SDS011;58763;47.982;11.516;2023-04-28T13:28:57;1.17;;;0.50;;
71106;SDS011;58763;47.982;11.516;2023-04-28T13:31:22;1.48;;;0.40;;
71106;SDS011;58763;47.982;11.516;2023-04-28T13:33:47;0.80;;;0.35;;
71106;SDS011;58763;47.982;11.516;2023-04-28T13:36:13;0.70;;;0.30;;
71106;SDS011;58763;47.982;11.516;2023-04-28T13:38:39;1.63;;;0.30;;
71106;SDS011;58763;47.982;11.516;2023-04-28T13:41:04;1.00;;;0.30;;
71106;SDS011;58763;47.982;11.516;2023-04-28T13:43:30;0.88;;;0.30;;
71106;SDS011;58763;47.982;11.516;2023-04-28T13:45:55;1.70;;;0.38;;
71106;SDS011;58763;47.982;11.516;2023-04-28T13:48:21;0.75;;;0.30;;
71106;SDS011;58763;47.982;11.516;2023-04-28T13:50:46;0.90;;;0.25;;
71106;SDS011;58763;47.982;11.516;2023-04-28T13:53:12;0.80;;;0.40;;
71106;SDS011;58763;47.982;11.516;2023-04-28T13:55:37;0.68;;;0.32;;
71106;SDS011;58763;47.982;11.516;2023-04-28T13:58:03;0.75;;;0.40;;
71106;SDS011;58763;47.982;11.516;2023-04-28T14:00:33;2.08;;;0.40;;
71106;SDS011;58763;47.982;11.516;2023-04-28T14:02:59;0.85;;;0.38;;
71106;SDS011;58763;47.982;11.516;2023-04-28T14:05:25;2.40;;;0.45;;
71106;SDS011;58763;47.982;11.516;2023-04-28T14:07:54;1.30;;;0.40;;
71106;SDS011;58763;47.982;11.516;2023-04-28T14:10:20;2.75;;;0.52;;
71106;SDS011;58763;47.982;11.516;2023-04-28T14:12:46;1.70;;;0.57;;
71106;SDS011;58763;47.982;11.516;2023-04-28T14:15:13;1.80;;;0.60;;
71106;SDS011;58763;47.982;11.516;2023-04-28T14:17:39;1.20;;;0.57;;
71106;SDS011;58763;47.982;11.516;2023-04-28T14:20:05;1.70;;;0.75;;
71106;SDS011;58763;47.982;11.516;2023-04-28T14:22:31;1.40;;;0.40;;
71106;SDS011;58763;47.982;11.516;2023-04-28T14:24:56;1.35;;;0.60;;
71106;SDS011;58763;47.982;11.516;2023-04-28T14:27:22;2.05;;;0.63;;
71106;SDS011;58763;47.982;11.516;2023-04-28T14:29:47;0.98;;;0.40;;
71106;SDS011;58763;47.982;11.516;2023-04-28T14:32:13;1.45;;;0.50;;
71106;SDS011;58763;47.982;11.516;2023-04-28T14:34:40;1.67;;;0.50;;
71106;SDS011;58763;47.982;11.516;2023-04-28T14:37:06;1.55;;;0.50;;
71106;SDS011;58763;47.982;11.516;2023-04-28T14:39:32;0.95;;;0.40;;
71106;SDS011;58763;47.982;11.516;2023-04-28T14:41:58;0.90;;;0.40;;
71106;SDS011;58763;47.982;11.516;2023-04-28T14:44:23;0.85;;;0.40;;
71106;SDS011;58763;47.982;11.516;2023-04-28T14:46:48;0.88;;;0.40;;
71106;SDS011;58763;47.982;11.516;2023-04-28T14:49:14;0.80;;;0.40;;
71106;SDS011;58763;47.982;11.516;2023-04-28T14:51:40;0.70;;;0.32;;
71106;SDS011;58763;47.982;11.516;2023-04-28T14:54:06;1.30;;;0.40;;
71106;SDS011;58763;47.982;11.516;2023-04-28T14:56:33;0.95;;;0.40;;
71106;SDS011;58763;47.982;11.516;2023-04-28T14:58:58;17.88;;;7.75;;
71106;SDS011;58763;47.982;11.516;2023-04-28T15:01:24;3.20;;;1.25;;
71106;SDS011;58763;47.982;11.516;2023-04-28T15:03:49;3.05;;;0.70;;